sensor_id;sensor_type;location;lat;lon;timestamp;P1;durP1;ratioP1;P2;durP2;ratioP2
79202;SDS011;68630;42.748;23.278;2023-10-19T07:29:19;45.50;;;23.38;;
79202;SDS011;68630;42.748;23.278;2023-10-19T07:37:01;51.90;;;24.18;;
79202;SDS011;68630;42.748;23.278;2023-10-19T07:50:26;51.02;;;27.25;;
79202;SDS011;68630;42.748;23.278;2023-10-19T07:53:02;55.33;;;28.77;;
79202;SDS011;68630;42.748;23.278;2023-10-19T07:55:27;50.15;;;28.65;;
79202;SDS011;68630;42.748;23.278;2023-10-19T07:57:57;50.63;;;28.25;;
79202;SDS011;68630;42.748;23.278;2023-10-19T08:08:16;32.73;;;19.80;;
79202;SDS011;68630;42.748;23.278;2023-10-19T08:10:48;31.75;;;18.23;;
79202;SDS011;68630;42.748;23.278;2023-10-19T08:13:16;27.05;;;17.95;;
79202;SDS011;68630;42.748;23.278;2023-10-19T08:18:35;29.90;;;16.48;;
79202;SDS011;68630;42.748;23.278;2023-10-19T08:23:38;25.95;;;15.43;;
79202;SDS011;68630;42.748;23.278;2023-10-19T08:37:56;29.40;;;14.73;;
79202;SDS011;68630;42.748;23.278;2023-10-19T08:40:25;23.38;;;14.35;;
79202;SDS011;68630;42.748;23.278;2023-10-19T08:50:46;16.65;;;8.60;;
79202;SDS011;68630;42.748;23.278;2023-10-19T09:20:32;18.17;;;9.58;;
79202;SDS011;68630;42.748;23.278;2023-10-19T10:48:48;21.05;;;10.48;;
79202;SDS011;68630;42.748;23.278;2023-10-19T10:53:51;20.37;;;9.75;;
79202;SDS011;68630;42.748;23.278;2023-10-19T10:56:21;18.73;;;11.15;;
79202;SDS011;68630;42.748;23.278;2023-10-19T10:58:53;13.30;;;8.85;;
79202;SDS011;68630;42.748;23.278;2023-10-19T11:01:30;18.25;;;9.43;;
79202;SDS011;68630;42.748;23.278;2023-10-19T11:04:16;15.50;;;8.98;;
79202;SDS011;68630;42.748;23.278;2023-10-19T11:06:48;17.10;;;9.28;;
79202;SDS011;68630;42.748;23.278;2023-10-19T11:09:25;15.38;;;10.00;;
79202;SDS011;68630;42.748;23.278;2023-10-19T11:14:35;13.18;;;8.68;;
79202;SDS011;68630;42.748;23.278;2023-10-19T11:17:12;12.07;;;7.97;;
79202;SDS011;68630;42.748;23.278;2023-10-19T11:19:56;15.28;;;8.13;;
79202;SDS011;68630;42.748;23.278;2023-10-19T11:22:12;10.18;;;7.15;;
79202;SDS011;68630;42.748;23.278;2023-10-19T11:24:44;10.60;;;6.90;;
79202;SDS011;68630;42.748;23.278;2023-10-19T11:27:21;16.90;;;8.20;;
79202;SDS011;68630;42.748;23.278;2023-10-19T11:29:57;12.70;;;7.95;;
79202;SDS011;68630;42.748;23.278;2023-10-19T11:32:25;11.90;;;7.72;;
79202;SDS011;68630;42.748;23.278;2023-10-19T11:34:59;15.95;;;7.70;;
79202;SDS011;68630;42.748;23.278;2023-10-19T11:37:29;15.93;;;7.00;;
79202;SDS011;68630;42.748;23.278;2023-10-19T11:39:58;11.43;;;6.90;;
79202;SDS011;68630;42.748;23.278;2023-10-19T11:42:26;15.85;;;7.35;;
79202;SDS011;68630;42.748;23.278;2023-10-19T11:44:55;13.30;;;7.62;;
79202;SDS011;68630;42.748;23.278;2023-10-19T11:47:23;13.58;;;7.53;;
79202;SDS011;68630;42.748;23.278;2023-10-19T11:49:51;9.10;;;6.30;;
79202;SDS011;68630;42.748;23.278;2023-10-19T11:52:19;14.90;;;7.17;;
79202;SDS011;68630;42.748;23.278;2023-10-19T11:54:48;12.85;;;7.97;;
79202;SDS011;68630;42.748;23.278;2023-10-19T12:02:31;16.82;;;7.78;;
79202;SDS011;68630;42.748;23.278;2023-10-19T12:05:01;14.10;;;7.42;;
79202;SDS011;68630;42.748;23.278;2023-10-19T12:07:32;13.38;;;6.67;;
79202;SDS011;68630;42.748;23.278;2023-10-19T12:10:02;12.68;;;7.42;;
79202;SDS011;68630;42.748;23.278;2023-10-19T12:12:33;12.07;;;7.42;;
79202;SDS011;68630;42.748;23.278;2023-10-19T12:15:03;10.45;;;6.75;;
79202;SDS011;68630;42.748;23.278;2023-10-19T12:17:33;21.82;;;7.47;;
79202;SDS011;68630;42.748;23.278;2023-10-19T12:20:21;12.35;;;6.12;;
79202;SDS011;68630;42.748;23.278;2023-10-19T12:22:39;13.35;;;6.75;;
79202;SDS011;68630;42.748;23.278;2023-10-19T12:27:49;14.03;;;6.33;;
79202;SDS011;68630;42.748;23.278;2023-10-19T12:30:23;12.45;;;5.53;;
79202;SDS011;68630;42.748;23.278;2023-10-19T12:32:50;13.90;;;6.50;;
79202;SDS011;68630;42.748;23.278;2023-10-19T12:35:24;12.10;;;5.92;;
79202;SDS011;68630;42.748;23.278;2023-10-19T12:37:55;23.15;;;6.20;;
79202;SDS011;68630;42.748;23.278;2023-10-19T12:40:25;14.25;;;6.30;;
79202;SDS011;68630;42.748;23.278;2023-10-19T12:43:08;13.62;;;5.70;;
79202;SDS011;68630;42.748;23.278;2023-10-19T12:53:47;10.75;;;5.72;;
79202;SDS011;68630;42.748;23.278;2023-10-19T12:56:13;11.30;;;5.33;;
79202;SDS011;68630;42.748;23.278;2023-10-19T13:04:02;14.03;;;5.65;;
79202;SDS011;68630;42.748;23.278;2023-10-19T13:06:37;11.15;;;5.30;;
79202;SDS011;68630;42.748;23.278;2023-10-19T13:09:09;9.08;;;5.22;;
79202;SDS011;68630;42.748;23.278;2023-10-19T13:11:39;10.25;;;5.17;;
79202;SDS011;68630;42.748;23.278;2023-10-19T13:14:13;15.23;;;5.45;;
79202;SDS011;68630;42.748;23.278;2023-10-19T13:16:44;19.82;;;6.53;;
79202;SDS011;68630;42.748;23.278;2023-10-19T13:19:21;12.28;;;5.62;;
79202;SDS011;68630;42.748;23.278;2023-10-19T13:21:52;14.23;;;5.95;;
79202;SDS011;68630;42.748;23.278;2023-10-19T13:24:32;13.68;;;5.92;;
79202;SDS011;68630;42.748;23.278;2023-10-19T13:26:55;20.27;;;5.72;;
79202;SDS011;68630;42.748;23.278;2023-10-19T13:29:29;13.28;;;5.75;;
79202;SDS011;68630;42.748;23.278;2023-10-19T13:32:02;21.42;;;6.17;;
79202;SDS011;68630;42.748;23.278;2023-10-19T13:34:29;10.35;;;5.30;;
79202;SDS011;68630;42.748;23.278;2023-10-19T13:37:02;10.80;;;5.85;;
79202;SDS011;68630;42.748;23.278;2023-10-19T13:50:01;17.05;;;6.00;;
79202;SDS011;68630;42.748;23.278;2023-10-19T13:52:29;10.38;;;5.53;;
79202;SDS011;68630;42.748;23.278;2023-10-19T13:55:00;16.00;;;5.95;;
79202;SDS011;68630;42.748;23.278;2023-10-19T13:57:34;16.85;;;5.83;;
79202;SDS011;68630;42.748;23.278;2023-10-19T14:00:05;18.30;;;6.08;;
79202;SDS011;68630;42.748;23.278;2023-10-19T14:02:37;20.68;;;5.97;;
79202;SDS011;68630;42.748;23.278;2023-10-19T14:05:14;10.48;;;5.17;;
79202;SDS011;68630;42.748;23.278;2023-10-19T14:10:12;18.00;;;5.72;;
79202;SDS011;68630;42.748;23.278;2023-10-19T14:15:20;19.98;;;6.03;;
79202;SDS011;68630;42.748;23.278;2023-10-19T14:22:58;11.48;;;5.47;;
79202;SDS011;68630;42.748;23.278;2023-10-19T14:25:29;11.55;;;4.90;;
79202;SDS011;68630;42.748;23.278;2023-10-19T14:27:59;10.58;;;4.95;;
79202;SDS011;68630;42.748;23.278;2023-10-19T14:30:29;11.83;;;4.47;;
79202;SDS011;68630;42.748;23.278;2023-10-19T14:32:57;14.58;;;5.05;;
79202;SDS011;68630;42.748;23.278;2023-10-19T14:35:26;8.50;;;4.05;;
79202;SDS011;68630;42.748;23.278;2023-10-19T14:37:59;11.53;;;4.58;;
79202;SDS011;68630;42.748;23.278;2023-10-19T14:40:27;14.73;;;4.83;;
79202;SDS011;68630;42.748;23.278;2023-10-19T14:43:00;12.10;;;4.40;;
79202;SDS011;68630;42.748;23.278;2023-10-19T14:45:26;10.55;;;3.83;;
79202;SDS011;68630;42.748;23.278;2023-10-19T14:47:54;18.40;;;4.47;;
79202;SDS011;68630;42.748;23.278;2023-10-19T14:50:27;7.17;;;4.08;;
79202;SDS011;68630;42.748;23.278;2023-10-19T14:52:55;9.50;;;4.60;;
79202;SDS011;68630;42.748;23.278;2023-10-19T14:55:23;11.83;;;4.72;;
79202;SDS011;68630;42.748;23.278;2023-10-19T14:57:58;8.40;;;4.75;;
79202;SDS011;68630;42.748;23.278;2023-10-19T15:00:22;14.18;;;4.80;;
79202;SDS011;68630;42.748;23.278;2023-10-19T15:02:54;13.68;;;5.03;;
79202;SDS011;68630;42.748;23.278;2023-10-19T15:05:25;17.50;;;6.10;;
79202;SDS011;68630;42.748;23.278;2023-10-19T15:07:57;10.70;;;5.40;;
79202;SDS011;68630;42.748;23.278;2023-10-19T15:10:25;10.23;;;5.37;;
79202;SDS011;68630;42.748;23.278;2023-10-19T15:12:54;11.88;;;5.35;;
79202;SDS011;68630;42.748;23.278;2023-10-19T15:15:25;15.53;;;5.62;;
79202;SDS011;68630;42.748;23.278;2023-10-19T15:17:56;15.25;;;5.83;;
79202;SDS011;68630;42.748;23.278;2023-10-19T15:20:26;18.37;;;6.60;;
79202;SDS011;68630;42.748;23.278;2023-10-19T15:36:51;53.87;;;10.98;;
79202;SDS011;68630;42.748;23.278;2023-10-19T15:42:06;37.55;;;11.65;;
79202;SDS011;68630;42.748;23.278;2023-10-19T15:46:57;60.35;;;13.50;;
79202;SDS011;68630;42.748;23.278;2023-10-19T15:49:29;34.23;;;10.48;;
79202;SDS011;68630;42.748;23.278;2023-10-19T15:57:14;36.53;;;6.37;;
79202;SDS011;68630;42.748;23.278;2023-10-19T16:02:49;36.13;;;7.25;;
79202;SDS011;68630;42.748;23.278;2023-10-19T16:44:08;18.80;;;6.25;;
79202;SDS011;68630;42.748;23.278;2023-10-19T17:03:54;13.53;;;5.10;;
79202;SDS011;68630;42.748;23.278;2023-10-19T17:09:26;9.58;;;5.62;;
79202;SDS011;68630;42.748;23.278;2023-10-19T17:17:08;13.68;;;6.00;;
79202;SDS011;68630;42.748;23.278;2023-10-19T17:19:38;12.88;;;6.00;;
79202;SDS011;68630;42.748;23.278;2023-10-19T17:22:07;14.58;;;6.40;;
79202;SDS011;68630;42.748;23.278;2023-10-19T17:24:37;20.05;;;6.80;;
79202;SDS011;68630;42.748;23.278;2023-10-19T17:27:05;36.35;;;10.03;;
79202;SDS011;68630;42.748;23.278;2023-10-19T17:29:34;9.93;;;5.72;;
79202;SDS011;68630;42.748;23.278;2023-10-19T17:32:05;33.92;;;11.15;;
79202;SDS011;68630;42.748;23.278;2023-10-19T17:34:34;21.70;;;8.10;;
79202;SDS011;68630;42.748;23.278;2023-10-19T17:37:02;14.45;;;7.10;;
79202;SDS011;68630;42.748;23.278;2023-10-19T17:39:32;15.32;;;5.83;;
79202;SDS011;68630;42.748;23.278;2023-10-19T17:42:00;12.00;;;5.67;;
79202;SDS011;68630;42.748;23.278;2023-10-19T17:44:28;8.95;;;5.92;;
79202;SDS011;68630;42.748;23.278;2023-10-19T17:47:06;9.10;;;5.65;;
79202;SDS011;68630;42.748;23.278;2023-10-19T17:49:33;11.30;;;5.37;;
79202;SDS011;68630;42.748;23.278;2023-10-19T18:02:25;9.10;;;5.42;;
79202;SDS011;68630;42.748;23.278;2023-10-19T18:18:19;10.18;;;5.87;;
79202;SDS011;68630;42.748;23.278;2023-10-19T18:24:05;11.78;;;6.90;;
79202;SDS011;68630;42.748;23.278;2023-10-19T18:26:26;20.60;;;7.95;;
79202;SDS011;68630;42.748;23.278;2023-10-19T18:28:54;11.73;;;7.00;;
79202;SDS011;68630;42.748;23.278;2023-10-19T18:31:27;16.45;;;7.70;;
79202;SDS011;68630;42.748;23.278;2023-10-19T19:02:56;12.03;;;8.88;;
79202;SDS011;68630;42.748;23.278;2023-10-19T19:05:30;15.60;;;8.38;;
79202;SDS011;68630;42.748;23.278;2023-10-19T19:08:06;20.10;;;8.18;;
79202;SDS011;68630;42.748;23.278;2023-10-19T19:13:21;20.70;;;8.08;;
79202;SDS011;68630;42.748;23.278;2023-10-19T19:15:53;14.30;;;7.60;;
79202;SDS011;68630;42.748;23.278;2023-10-19T19:58:11;15.25;;;9.13;;
79202;SDS011;68630;42.748;23.278;2023-10-19T20:03:31;14.68;;;8.85;;
79202;SDS011;68630;42.748;23.278;2023-10-19T20:06:00;17.90;;;9.93;;
79202;SDS011;68630;42.748;23.278;2023-10-19T20:08:28;13.45;;;7.65;;
79202;SDS011;68630;42.748;23.278;2023-10-19T20:11:06;16.35;;;7.33;;
79202;SDS011;68630;42.748;23.278;2023-10-19T20:13:35;15.72;;;8.13;;
79202;SDS011;68630;42.748;23.278;2023-10-19T21:16:50;12.25;;;8.48;;
79202;SDS011;68630;42.748;23.278;2023-10-19T21:19:25;15.10;;;8.25;;
79202;SDS011;68630;42.748;23.278;2023-10-19T21:21:54;12.37;;;8.53;;
79202;SDS011;68630;42.748;23.278;2023-10-19T21:27:05;14.75;;;9.78;;
79202;SDS011;68630;42.748;23.278;2023-10-19T21:29:38;17.05;;;9.30;;
79202;SDS011;68630;42.748;23.278;2023-10-19T21:32:06;15.03;;;9.13;;
79202;SDS011;68630;42.748;23.278;2023-10-19T21:34:33;23.20;;;10.65;;
79202;SDS011;68630;42.748;23.278;2023-10-19T21:37:03;16.48;;;10.88;;
79202;SDS011;68630;42.748;23.278;2023-10-19T21:39:39;18.67;;;11.03;;
79202;SDS011;68630;42.748;23.278;2023-10-19T21:42:04;19.27;;;11.35;;
79202;SDS011;68630;42.748;23.278;2023-10-19T21:44:34;23.77;;;10.58;;
79202;SDS011;68630;42.748;23.278;2023-10-19T21:47:04;22.67;;;10.90;;
79202;SDS011;68630;42.748;23.278;2023-10-19T21:57:20;18.35;;;11.33;;
79202;SDS011;68630;42.748;23.278;2023-10-19T21:59:54;18.15;;;11.20;;
79202;SDS011;68630;42.748;23.278;2023-10-19T22:02:28;17.37;;;10.75;;
79202;SDS011;68630;42.748;23.278;2023-10-19T22:04:53;17.98;;;11.45;;
79202;SDS011;68630;42.748;23.278;2023-10-19T22:18:10;18.32;;;11.97;;
79202;SDS011;68630;42.748;23.278;2023-10-19T22:37:03;16.60;;;11.45;;
